sensor_id;sensor_type;location;lat;lon;timestamp;P1;durP1;ratioP1;P2;durP2;ratioP2
39654;SDS011;25336;59.944;11.010;2022-10-16T00:00:42;2.35;;;1.10;;
39654;SDS011;25336;59.944;11.010;2022-10-16T00:03:09;1.10;;;0.90;;
39654;SDS011;25336;59.944;11.010;2022-10-16T00:05:38;3.25;;;1.15;;
39654;SDS011;25336;59.944;11.010;2022-10-16T00:08:07;1.65;;;1.02;;
39654;SDS011;25336;59.944;11.010;2022-10-16T00:10:34;1.27;;;1.10;;
39654;SDS011;25336;59.944;11.010;2022-10-16T00:12:59;2.25;;;1.00;;
39654;SDS011;25336;59.944;11.010;2022-10-16T00:15:25;2.53;;;1.20;;
39654;SDS011;25336;59.944;11.010;2022-10-16T00:17:51;0.80;;;0.80;;
39654;SDS011;25336;59.944;11.010;2022-10-16T00:20:17;1.42;;;0.85;;
39654;SDS011;25336;59.944;11.010;2022-10-16T00:22:42;2.08;;;1.00;;
39654;SDS011;25336;59.944;11.010;2022-10-16T00:25:08;1.65;;;1.00;;
39654;SDS011;25336;59.944;11.010;2022-10-16T00:27:34;1.70;;;1.17;;
39654;SDS011;25336;59.944;11.010;2022-10-16T00:30:00;0.93;;;0.77;;
39654;SDS011;25336;59.944;11.010;2022-10-16T00:32:26;1.08;;;0.77;;
39654;SDS011;25336;59.944;11.010;2022-10-16T00:34:51;0.80;;;0.68;;
39654;SDS011;25336;59.944;11.010;2022-10-16T00:37:19;3.20;;;0.70;;
39654;SDS011;25336;59.944;11.010;2022-10-16T00:39:45;0.73;;;0.68;;
39654;SDS011;25336;59.944;11.010;2022-10-16T00:42:14;1.17;;;0.70;;
39654;SDS011;25336;59.944;11.010;2022-10-16T00:47:27;0.85;;;0.70;;
39654;SDS011;25336;59.944;11.010;2022-10-16T00:50:09;0.80;;;0.80;;
39654;SDS011;25336;59.944;11.010;2022-10-16T00:52:48;0.60;;;0.60;;
39654;SDS011;25336;59.944;11.010;2022-10-16T00:55:16;3.13;;;0.65;;
39654;SDS011;25336;59.944;11.010;2022-10-16T00:57:42;0.50;;;0.50;;
39654;SDS011;25336;59.944;11.010;2022-10-16T01:00:11;0.65;;;0.60;;
39654;SDS011;25336;59.944;11.010;2022-10-16T01:02:38;0.98;;;0.82;;
39654;SDS011;25336;59.944;11.010;2022-10-16T01:05:04;0.70;;;0.70;;
39654;SDS011;25336;59.944;11.010;2022-10-16T01:21:18;0.50;;;0.50;;
39654;SDS011;25336;59.944;11.010;2022-10-16T01:26:31;0.57;;;0.57;;
39654;SDS011;25336;59.944;11.010;2022-10-16T01:29:40;0.50;;;0.50;;
39654;SDS011;25336;59.944;11.010;2022-10-16T01:35:35;0.73;;;0.52;;
39654;SDS011;25336;59.944;11.010;2022-10-16T01:38:15;1.05;;;0.60;;
39654;SDS011;25336;59.944;11.010;2022-10-16T01:40:44;0.82;;;0.70;;
39654;SDS011;25336;59.944;11.010;2022-10-16T01:43:14;0.43;;;0.43;;
39654;SDS011;25336;59.944;11.010;2022-10-16T01:45:42;0.93;;;0.73;;
39654;SDS011;25336;59.944;11.010;2022-10-16T01:48:11;0.60;;;0.60;;
39654;SDS011;25336;59.944;11.010;2022-10-16T01:50:41;0.60;;;0.60;;
39654;SDS011;25336;59.944;11.010;2022-10-16T01:53:10;0.63;;;0.63;;
39654;SDS011;25336;59.944;11.010;2022-10-16T01:55:39;3.13;;;0.70;;
39654;SDS011;25336;59.944;11.010;2022-10-16T01:58:10;0.60;;;0.60;;
39654;SDS011;25336;59.944;11.010;2022-10-16T02:00:38;1.90;;;0.75;;
39654;SDS011;25336;59.944;11.010;2022-10-16T02:03:05;1.95;;;0.50;;
39654;SDS011;25336;59.944;11.010;2022-10-16T02:08:02;1.23;;;0.80;;
39654;SDS011;25336;59.944;11.010;2022-10-16T02:10:29;2.25;;;0.50;;
39654;SDS011;25336;59.944;11.010;2022-10-16T02:15:35;1.55;;;0.70;;
39654;SDS011;25336;59.944;11.010;2022-10-16T02:18:02;0.60;;;0.60;;
39654;SDS011;25336;59.944;11.010;2022-10-16T02:20:29;0.95;;;0.60;;
39654;SDS011;25336;59.944;11.010;2022-10-16T02:23:01;0.60;;;0.60;;
39654;SDS011;25336;59.944;11.010;2022-10-16T02:25:32;0.60;;;0.60;;
39654;SDS011;25336;59.944;11.010;2022-10-16T02:30:57;0.70;;;0.70;;
39654;SDS011;25336;59.944;11.010;2022-10-16T02:33:26;0.63;;;0.63;;
39654;SDS011;25336;59.944;11.010;2022-10-16T02:35:54;1.30;;;0.80;;
39654;SDS011;25336;59.944;11.010;2022-10-16T02:38:21;0.75;;;0.60;;
39654;SDS011;25336;59.944;11.010;2022-10-16T02:40:47;0.73;;;0.60;;
39654;SDS011;25336;59.944;11.010;2022-10-16T02:43:14;0.70;;;0.70;;
39654;SDS011;25336;59.944;11.010;2022-10-16T02:45:40;0.77;;;0.77;;
39654;SDS011;25336;59.944;11.010;2022-10-16T02:48:06;0.50;;;0.50;;
39654;SDS011;25336;59.944;11.010;2022-10-16T02:50:32;0.55;;;0.55;;
39654;SDS011;25336;59.944;11.010;2022-10-16T02:52:58;0.60;;;0.60;;
39654;SDS011;25336;59.944;11.010;2022-10-16T02:55:23;4.43;;;0.80;;
39654;SDS011;25336;59.944;11.010;2022-10-16T02:57:49;0.60;;;0.60;;
39654;SDS011;25336;59.944;11.010;2022-10-16T03:00:16;3.70;;;1.00;;
39654;SDS011;25336;59.944;11.010;2022-10-16T03:02:42;0.60;;;0.60;;
39654;SDS011;25336;59.944;11.010;2022-10-16T03:05:08;1.95;;;0.57;;
39654;SDS011;25336;59.944;11.010;2022-10-16T03:07:34;0.50;;;0.50;;
39654;SDS011;25336;59.944;11.010;2022-10-16T03:10:00;0.70;;;0.70;;
39654;SDS011;25336;59.944;11.010;2022-10-16T03:12:26;0.93;;;0.60;;
39654;SDS011;25336;59.944;11.010;2022-10-16T03:14:53;2.15;;;0.60;;
39654;SDS011;25336;59.944;11.010;2022-10-16T03:17:20;0.63;;;0.63;;
39654;SDS011;25336;59.944;11.010;2022-10-16T03:19:45;0.52;;;0.52;;
39654;SDS011;25336;59.944;11.010;2022-10-16T03:22:11;0.70;;;0.70;;
39654;SDS011;25336;59.944;11.010;2022-10-16T03:24:37;0.75;;;0.70;;
39654;SDS011;25336;59.944;11.010;2022-10-16T03:27:03;0.70;;;0.70;;
39654;SDS011;25336;59.944;11.010;2022-10-16T03:29:28;1.38;;;0.80;;
39654;SDS011;25336;59.944;11.010;2022-10-16T03:31:55;0.82;;;0.73;;
39654;SDS011;25336;59.944;11.010;2022-10-16T03:34:21;6.78;;;0.77;;
39654;SDS011;25336;59.944;11.010;2022-10-16T03:36:47;0.90;;;0.90;;
39654;SDS011;25336;59.944;11.010;2022-10-16T03:39:12;1.10;;;1.00;;
39654;SDS011;25336;59.944;11.010;2022-10-16T03:41:38;0.75;;;0.75;;
39654;SDS011;25336;59.944;11.010;2022-10-16T03:44:04;1.98;;;0.82;;
39654;SDS011;25336;59.944;11.010;2022-10-16T03:46:29;0.90;;;0.90;;
39654;SDS011;25336;59.944;11.010;2022-10-16T03:48:55;0.90;;;0.90;;
39654;SDS011;25336;59.944;11.010;2022-10-16T03:51:21;1.35;;;1.25;;
39654;SDS011;25336;59.944;11.010;2022-10-16T03:53:46;4.35;;;1.30;;
39654;SDS011;25336;59.944;11.010;2022-10-16T03:56:12;1.65;;;1.55;;
39654;SDS011;25336;59.944;11.010;2022-10-16T03:58:38;1.77;;;1.67;;
39654;SDS011;25336;59.944;11.010;2022-10-16T04:01:03;1.63;;;1.48;;
39654;SDS011;25336;59.944;11.010;2022-10-16T04:03:29;1.75;;;1.65;;
39654;SDS011;25336;59.944;11.010;2022-10-16T04:05:55;1.92;;;1.83;;
39654;SDS011;25336;59.944;11.010;2022-10-16T04:08:21;1.75;;;1.65;;
39654;SDS011;25336;59.944;11.010;2022-10-16T04:10:46;1.45;;;1.23;;
39654;SDS011;25336;59.944;11.010;2022-10-16T04:13:12;1.20;;;1.20;;
39654;SDS011;25336;59.944;11.010;2022-10-16T04:15:38;1.75;;;1.65;;
39654;SDS011;25336;59.944;11.010;2022-10-16T04:18:04;1.50;;;1.40;;
39654;SDS011;25336;59.944;11.010;2022-10-16T04:20:32;1.30;;;1.20;;
39654;SDS011;25336;59.944;11.010;2022-10-16T04:23:00;1.67;;;1.40;;
39654;SDS011;25336;59.944;11.010;2022-10-16T04:25:26;1.48;;;1.38;;
39654;SDS011;25336;59.944;11.010;2022-10-16T04:27:52;1.45;;;1.27;;
39654;SDS011;25336;59.944;11.010;2022-10-16T04:30:19;1.50;;;1.40;;
39654;SDS011;25336;59.944;11.010;2022-10-16T04:32:52;1.33;;;1.23;;
39654;SDS011;25336;59.944;11.010;2022-10-16T04:35:18;1.60;;;1.50;;
39654;SDS011;25336;59.944;11.010;2022-10-16T04:37:45;1.63;;;1.52;;
39654;SDS011;25336;59.944;11.010;2022-10-16T04:40:11;4.22;;;1.52;;
39654;SDS011;25336;59.944;11.010;2022-10-16T04:42:39;1.55;;;1.45;;
39654;SDS011;25336;59.944;11.010;2022-10-16T04:45:08;1.90;;;1.80;;
39654;SDS011;25336;59.944;11.010;2022-10-16T04:47:33;1.50;;;1.40;;
39654;SDS011;25336;59.944;11.010;2022-10-16T04:49:59;1.45;;;1.35;;
39654;SDS011;25336;59.944;11.010;2022-10-16T04:52:26;1.40;;;1.30;;
39654;SDS011;25336;59.944;11.010;2022-10-16T04:54:52;1.80;;;1.30;;
39654;SDS011;25336;59.944;11.010;2022-10-16T04:57:18;1.52;;;1.42;;
39654;SDS011;25336;59.944;11.010;2022-10-16T04:59:44;1.58;;;1.30;;
39654;SDS011;25336;59.944;11.010;2022-10-16T05:02:10;1.00;;;1.00;;
39654;SDS011;25336;59.944;11.010;2022-10-16T05:04:35;1.83;;;1.42;;
39654;SDS011;25336;59.944;11.010;2022-10-16T05:07:01;1.92;;;1.55;;
39654;SDS011;25336;59.944;11.010;2022-10-16T05:09:27;1.40;;;1.30;;
39654;SDS011;25336;59.944;11.010;2022-10-16T05:11:55;1.63;;;1.50;;
39654;SDS011;25336;59.944;11.010;2022-10-16T05:14:20;1.75;;;1.65;;
39654;SDS011;25336;59.944;11.010;2022-10-16T05:16:46;1.60;;;1.50;;
39654;SDS011;25336;59.944;11.010;2022-10-16T05:19:13;1.35;;;1.25;;
39654;SDS011;25336;59.944;11.010;2022-10-16T05:21:39;1.55;;;1.33;;
39654;SDS011;25336;59.944;11.010;2022-10-16T05:24:04;1.63;;;1.48;;
39654;SDS011;25336;59.944;11.010;2022-10-16T05:26:33;1.30;;;1.20;;
39654;SDS011;25336;59.944;11.010;2022-10-16T05:28:58;2.47;;;1.38;;
39654;SDS011;25336;59.944;11.010;2022-10-16T05:31:24;1.38;;;1.27;;
39654;SDS011;25336;59.944;11.010;2022-10-16T05:33:52;1.60;;;1.50;;
39654;SDS011;25336;59.944;11.010;2022-10-16T05:36:27;1.42;;;1.23;;
39654;SDS011;25336;59.944;11.010;2022-10-16T05:38:53;1.40;;;1.30;;
39654;SDS011;25336;59.944;11.010;2022-10-16T05:41:19;1.25;;;1.23;;
39654;SDS011;25336;59.944;11.010;2022-10-16T05:43:48;1.42;;;0.90;;
39654;SDS011;25336;59.944;11.010;2022-10-16T05:46:14;1.88;;;1.30;;
39654;SDS011;25336;59.944;11.010;2022-10-16T05:48:43;0.95;;;0.95;;
39654;SDS011;25336;59.944;11.010;2022-10-16T05:51:12;1.10;;;1.00;;
39654;SDS011;25336;59.944;11.010;2022-10-16T05:53:41;1.05;;;1.05;;
39654;SDS011;25336;59.944;11.010;2022-10-16T05:56:09;2.75;;;1.20;;
39654;SDS011;25336;59.944;11.010;2022-10-16T05:58:37;1.00;;;1.00;;
39654;SDS011;25336;59.944;11.010;2022-10-16T06:01:15;1.27;;;1.17;;
39654;SDS011;25336;59.944;11.010;2022-10-16T06:03:42;0.90;;;0.90;;
39654;SDS011;25336;59.944;11.010;2022-10-16T06:06:15;0.90;;;0.90;;
39654;SDS011;25336;59.944;11.010;2022-10-16T06:08:45;0.90;;;0.90;;
39654;SDS011;25336;59.944;11.010;2022-10-16T06:11:13;2.78;;;1.20;;
39654;SDS011;25336;59.944;11.010;2022-10-16T06:13:43;1.10;;;1.00;;
39654;SDS011;25336;59.944;11.010;2022-10-16T06:16:11;0.90;;;0.90;;
39654;SDS011;25336;59.944;11.010;2022-10-16T06:18:38;1.17;;;1.00;;
39654;SDS011;25336;59.944;11.010;2022-10-16T06:21:10;3.83;;;1.10;;
39654;SDS011;25336;59.944;11.010;2022-10-16T06:23:41;4.63;;;1.40;;
39654;SDS011;25336;59.944;11.010;2022-10-16T06:26:08;1.25;;;1.20;;
39654;SDS011;25336;59.944;11.010;2022-10-16T06:28:36;1.40;;;1.30;;
39654;SDS011;25336;59.944;11.010;2022-10-16T06:31:02;1.50;;;1.40;;
39654;SDS011;25336;59.944;11.010;2022-10-16T06:33:29;1.50;;;1.40;;
39654;SDS011;25336;59.944;11.010;2022-10-16T06:36:08;1.75;;;1.65;;
39654;SDS011;25336;59.944;11.010;2022-10-16T06:38:37;4.15;;;3.20;;
39654;SDS011;25336;59.944;11.010;2022-10-16T06:41:04;5.13;;;4.45;;
39654;SDS011;25336;59.944;11.010;2022-10-16T06:43:30;3.08;;;2.72;;
39654;SDS011;25336;59.944;11.010;2022-10-16T06:45:57;4.25;;;3.28;;
39654;SDS011;25336;59.944;11.010;2022-10-16T06:48:26;2.85;;;2.60;;
39654;SDS011;25336;59.944;11.010;2022-10-16T06:50:57;5.55;;;4.10;;
39654;SDS011;25336;59.944;11.010;2022-10-16T06:53:27;4.57;;;3.72;;
39654;SDS011;25336;59.944;11.010;2022-10-16T06:55:54;3.67;;;3.35;;
39654;SDS011;25336;59.944;11.010;2022-10-16T06:58:20;4.38;;;2.88;;
39654;SDS011;25336;59.944;11.010;2022-10-16T07:00:46;5.45;;;2.72;;
39654;SDS011;25336;59.944;11.010;2022-10-16T07:03:12;2.45;;;2.22;;
39654;SDS011;25336;59.944;11.010;2022-10-16T07:05:38;3.20;;;2.40;;
39654;SDS011;25336;59.944;11.010;2022-10-16T07:08:07;3.25;;;2.80;;
39654;SDS011;25336;59.944;11.010;2022-10-16T07:10:34;2.95;;;2.58;;
39654;SDS011;25336;59.944;11.010;2022-10-16T07:13:02;3.30;;;3.00;;
39654;SDS011;25336;59.944;11.010;2022-10-16T07:15:27;4.00;;;2.88;;
39654;SDS011;25336;59.944;11.010;2022-10-16T07:17:53;3.72;;;2.25;;
39654;SDS011;25336;59.944;11.010;2022-10-16T07:20:19;2.92;;;2.30;;
39654;SDS011;25336;59.944;11.010;2022-10-16T07:22:48;5.53;;;2.50;;
39654;SDS011;25336;59.944;11.010;2022-10-16T07:25:16;6.45;;;3.00;;
39654;SDS011;25336;59.944;11.010;2022-10-16T07:27:41;12.80;;;2.50;;
39654;SDS011;25336;59.944;11.010;2022-10-16T07:30:07;3.08;;;2.30;;
39654;SDS011;25336;59.944;11.010;2022-10-16T07:32:33;4.30;;;1.80;;
39654;SDS011;25336;59.944;11.010;2022-10-16T07:35:01;3.97;;;2.05;;
39654;SDS011;25336;59.944;11.010;2022-10-16T07:37:36;4.60;;;2.95;;
39654;SDS011;25336;59.944;11.010;2022-10-16T07:40:02;7.28;;;2.40;;
39654;SDS011;25336;59.944;11.010;2022-10-16T07:42:28;3.60;;;2.13;;
39654;SDS011;25336;59.944;11.010;2022-10-16T07:44:53;4.15;;;2.20;;
39654;SDS011;25336;59.944;11.010;2022-10-16T07:47:19;3.35;;;1.67;;
39654;SDS011;25336;59.944;11.010;2022-10-16T07:49:45;4.43;;;1.85;;
39654;SDS011;25336;59.944;11.010;2022-10-16T07:52:11;3.30;;;2.75;;
39654;SDS011;25336;59.944;11.010;2022-10-16T07:54:36;5.35;;;4.10;;
39654;SDS011;25336;59.944;11.010;2022-10-16T07:57:02;10.50;;;6.00;;
39654;SDS011;25336;59.944;11.010;2022-10-16T07:59:27;9.27;;;5.65;;
39654;SDS011;25336;59.944;11.010;2022-10-16T08:01:53;5.55;;;3.97;;
39654;SDS011;25336;59.944;11.010;2022-10-16T08:04:19;5.90;;;3.58;;
39654;SDS011;25336;59.944;11.010;2022-10-16T08:06:44;12.18;;;8.98;;
39654;SDS011;25336;59.944;11.010;2022-10-16T08:09:10;11.15;;;7.22;;
39654;SDS011;25336;59.944;11.010;2022-10-16T08:11:36;6.78;;;6.10;;
39654;SDS011;25336;59.944;11.010;2022-10-16T08:14:01;6.32;;;3.80;;
39654;SDS011;25336;59.944;11.010;2022-10-16T08:16:27;5.03;;;3.53;;
39654;SDS011;25336;59.944;11.010;2022-10-16T08:18:52;6.25;;;3.78;;
39654;SDS011;25336;59.944;11.010;2022-10-16T08:21:20;4.20;;;2.72;;
39654;SDS011;25336;59.944;11.010;2022-10-16T08:23:48;6.32;;;3.58;;
39654;SDS011;25336;59.944;11.010;2022-10-16T08:26:14;6.18;;;4.55;;
39654;SDS011;25336;59.944;11.010;2022-10-16T08:28:39;6.65;;;4.85;;
39654;SDS011;25336;59.944;11.010;2022-10-16T08:31:06;8.38;;;4.15;;
39654;SDS011;25336;59.944;11.010;2022-10-16T08:33:40;7.82;;;4.13;;
39654;SDS011;25336;59.944;11.010;2022-10-16T08:36:09;6.68;;;3.90;;
39654;SDS011;25336;59.944;11.010;2022-10-16T08:38:36;9.82;;;5.70;;
39654;SDS011;25336;59.944;11.010;2022-10-16T08:44:09;8.55;;;5.35;;
39654;SDS011;25336;59.944;11.010;2022-10-16T08:49:37;5.53;;;4.10;;
39654;SDS011;25336;59.944;11.010;2022-10-16T08:52:10;5.50;;;3.90;;
39654;SDS011;25336;59.944;11.010;2022-10-16T08:57:12;5.30;;;3.08;;
39654;SDS011;25336;59.944;11.010;2022-10-16T08:59:43;6.15;;;2.72;;
39654;SDS011;25336;59.944;11.010;2022-10-16T09:04:55;3.63;;;2.67;;
39654;SDS011;25336;59.944;11.010;2022-10-16T09:07:40;6.28;;;2.90;;
39654;SDS011;25336;59.944;11.010;2022-10-16T09:10:39;6.55;;;3.22;;
39654;SDS011;25336;59.944;11.010;2022-10-16T09:13:18;6.22;;;3.65;;
39654;SDS011;25336;59.944;11.010;2022-10-16T09:16:03;5.80;;;3.08;;
39654;SDS011;25336;59.944;11.010;2022-10-16T09:19:00;7.88;;;4.95;;
39654;SDS011;25336;59.944;11.010;2022-10-16T09:21:31;7.65;;;4.75;;
39654;SDS011;25336;59.944;11.010;2022-10-16T09:24:09;10.15;;;5.40;;
39654;SDS011;25336;59.944;11.010;2022-10-16T09:26:36;17.77;;;10.43;;
39654;SDS011;25336;59.944;11.010;2022-10-16T09:29:02;13.20;;;7.82;;
39654;SDS011;25336;59.944;11.010;2022-10-16T09:31:28;15.77;;;8.60;;
39654;SDS011;25336;59.944;11.010;2022-10-16T09:34:02;14.25;;;8.13;;
39654;SDS011;25336;59.944;11.010;2022-10-16T09:36:32;15.50;;;7.32;;
39654;SDS011;25336;59.944;11.010;2022-10-16T09:39:07;9.07;;;5.50;;
39654;SDS011;25336;59.944;11.010;2022-10-16T09:41:35;11.25;;;5.22;;
39654;SDS011;25336;59.944;11.010;2022-10-16T09:44:05;8.15;;;5.10;;
39654;SDS011;25336;59.944;11.010;2022-10-16T09:46:40;8.77;;;4.78;;
39654;SDS011;25336;59.944;11.010;2022-10-16T09:49:22;8.13;;;3.78;;
39654;SDS011;25336;59.944;11.010;2022-10-16T09:51:49;7.90;;;4.72;;
39654;SDS011;25336;59.944;11.010;2022-10-16T09:54:17;15.30;;;5.93;;
39654;SDS011;25336;59.944;11.010;2022-10-16T09:56:45;7.47;;;4.60;;
39654;SDS011;25336;59.944;11.010;2022-10-16T09:59:15;6.88;;;4.65;;
39654;SDS011;25336;59.944;11.010;2022-10-16T10:04:15;10.18;;;4.70;;
39654;SDS011;25336;59.944;11.010;2022-10-16T10:06:43;8.63;;;6.22;;
39654;SDS011;25336;59.944;11.010;2022-10-16T10:09:21;9.38;;;6.32;;
39654;SDS011;25336;59.944;11.010;2022-10-16T10:14:28;13.73;;;7.18;;
39654;SDS011;25336;59.944;11.010;2022-10-16T10:17:14;12.60;;;3.90;;
39654;SDS011;25336;59.944;11.010;2022-10-16T10:25:15;3.58;;;1.25;;
39654;SDS011;25336;59.944;11.010;2022-10-16T10:31:14;4.38;;;1.80;;
39654;SDS011;25336;59.944;11.010;2022-10-16T10:36:40;4.35;;;1.50;;
39654;SDS011;25336;59.944;11.010;2022-10-16T10:39:14;6.80;;;1.30;;
39654;SDS011;25336;59.944;11.010;2022-10-16T10:55:31;2.60;;;1.80;;
39654;SDS011;25336;59.944;11.010;2022-10-16T10:58:25;6.22;;;2.55;;
39654;SDS011;25336;59.944;11.010;2022-10-16T11:01:12;11.23;;;2.03;;
39654;SDS011;25336;59.944;11.010;2022-10-16T11:06:32;5.10;;;1.80;;
39654;SDS011;25336;59.944;11.010;2022-10-16T11:09:02;2.70;;;1.35;;
39654;SDS011;25336;59.944;11.010;2022-10-16T11:14:28;5.47;;;1.70;;
39654;SDS011;25336;59.944;11.010;2022-10-16T11:22:46;3.17;;;1.40;;
39654;SDS011;25336;59.944;11.010;2022-10-16T11:25:21;5.30;;;2.10;;
39654;SDS011;25336;59.944;11.010;2022-10-16T11:33:36;5.32;;;2.13;;
39654;SDS011;25336;59.944;11.010;2022-10-16T11:47:44;6.05;;;1.50;;
39654;SDS011;25336;59.944;11.010;2022-10-16T11:58:22;5.28;;;3.22;;
39654;SDS011;25336;59.944;11.010;2022-10-16T12:04:13;8.95;;;3.00;;
39654;SDS011;25336;59.944;11.010;2022-10-16T12:09:09;7.00;;;1.95;;
39654;SDS011;25336;59.944;11.010;2022-10-16T12:11:50;3.38;;;1.90;;
39654;SDS011;25336;59.944;11.010;2022-10-16T12:14:20;4.95;;;1.95;;
39654;SDS011;25336;59.944;11.010;2022-10-16T12:17:00;2.63;;;1.50;;
39654;SDS011;25336;59.944;11.010;2022-10-16T12:19:58;4.25;;;1.63;;
39654;SDS011;25336;59.944;11.010;2022-10-16T12:22:25;4.00;;;1.58;;
39654;SDS011;25336;59.944;11.010;2022-10-16T12:24:55;6.65;;;1.25;;
39654;SDS011;25336;59.944;11.010;2022-10-16T12:27:40;4.53;;;1.50;;
39654;SDS011;25336;59.944;11.010;2022-10-16T12:30:05;3.55;;;1.83;;
39654;SDS011;25336;59.944;11.010;2022-10-16T12:32:33;5.13;;;1.70;;
39654;SDS011;25336;59.944;11.010;2022-10-16T12:35:04;2.35;;;1.77;;
39654;SDS011;25336;59.944;11.010;2022-10-16T12:37:42;3.00;;;1.45;;
39654;SDS011;25336;59.944;11.010;2022-10-16T12:40:12;2.03;;;1.52;;
39654;SDS011;25336;59.944;11.010;2022-10-16T12:42:41;2.83;;;1.33;;
39654;SDS011;25336;59.944;11.010;2022-10-16T12:48:02;1.05;;;0.90;;
39654;SDS011;25336;59.944;11.010;2022-10-16T12:50:32;3.67;;;1.85;;
39654;SDS011;25336;59.944;11.010;2022-10-16T12:53:03;2.78;;;1.38;;
39654;SDS011;25336;59.944;11.010;2022-10-16T12:55:43;2.20;;;1.73;;
39654;SDS011;25336;59.944;11.010;2022-10-16T13:04:22;6.82;;;3.30;;
39654;SDS011;25336;59.944;11.010;2022-10-16T13:18:40;5.68;;;2.42;;
39654;SDS011;25336;59.944;11.010;2022-10-16T13:21:26;3.63;;;1.73;;
39654;SDS011;25336;59.944;11.010;2022-10-16T13:24:07;1.70;;;1.00;;
39654;SDS011;25336;59.944;11.010;2022-10-16T13:26:47;1.10;;;0.93;;
39654;SDS011;25336;59.944;11.010;2022-10-16T13:29:30;3.15;;;2.25;;
39654;SDS011;25336;59.944;11.010;2022-10-16T13:31:57;2.45;;;1.85;;
39654;SDS011;25336;59.944;11.010;2022-10-16T13:34:25;3.88;;;1.58;;
39654;SDS011;25336;59.944;11.010;2022-10-16T13:36:52;1.88;;;1.40;;
39654;SDS011;25336;59.944;11.010;2022-10-16T13:39:28;2.63;;;1.77;;
39654;SDS011;25336;59.944;11.010;2022-10-16T13:42:05;2.53;;;1.20;;
39654;SDS011;25336;59.944;11.010;2022-10-16T13:44:47;2.70;;;1.10;;
39654;SDS011;25336;59.944;11.010;2022-10-16T13:47:25;1.98;;;1.00;;
39654;SDS011;25336;59.944;11.010;2022-10-16T13:50:03;2.33;;;0.95;;
39654;SDS011;25336;59.944;11.010;2022-10-16T13:52:37;3.60;;;1.25;;
39654;SDS011;25336;59.944;11.010;2022-10-16T13:55:04;1.23;;;0.98;;
39654;SDS011;25336;59.944;11.010;2022-10-16T13:57:40;2.75;;;1.00;;
39654;SDS011;25336;59.944;11.010;2022-10-16T14:00:20;1.48;;;0.88;;
39654;SDS011;25336;59.944;11.010;2022-10-16T14:03:12;3.35;;;1.08;;
39654;SDS011;25336;59.944;11.010;2022-10-16T14:05:44;2.20;;;1.25;;
39654;SDS011;25336;59.944;11.010;2022-10-16T14:08:13;3.25;;;1.20;;
39654;SDS011;25336;59.944;11.010;2022-10-16T14:10:38;3.85;;;1.70;;
39654;SDS011;25336;59.944;11.010;2022-10-16T14:13:05;4.13;;;2.13;;
39654;SDS011;25336;59.944;11.010;2022-10-16T14:15:33;3.83;;;2.25;;
39654;SDS011;25336;59.944;11.010;2022-10-16T14:18:00;4.43;;;1.42;;
39654;SDS011;25336;59.944;11.010;2022-10-16T14:20:30;2.03;;;1.08;;
39654;SDS011;25336;59.944;11.010;2022-10-16T14:23:03;2.78;;;1.27;;
39654;SDS011;25336;59.944;11.010;2022-10-16T14:26:05;3.50;;;1.10;;
39654;SDS011;25336;59.944;11.010;2022-10-16T14:28:40;3.47;;;1.00;;
39654;SDS011;25336;59.944;11.010;2022-10-16T14:31:26;3.67;;;2.22;;
39654;SDS011;25336;59.944;11.010;2022-10-16T14:33:52;1.55;;;1.40;;
39654;SDS011;25336;59.944;11.010;2022-10-16T14:36:18;3.25;;;1.58;;
39654;SDS011;25336;59.944;11.010;2022-10-16T14:41:31;1.85;;;1.40;;
39654;SDS011;25336;59.944;11.010;2022-10-16T14:44:01;4.53;;;2.20;;
39654;SDS011;25336;59.944;11.010;2022-10-16T14:46:33;1.42;;;1.00;;
39654;SDS011;25336;59.944;11.010;2022-10-16T14:51:39;3.63;;;1.55;;
39654;SDS011;25336;59.944;11.010;2022-10-16T14:54:07;2.63;;;1.20;;
39654;SDS011;25336;59.944;11.010;2022-10-16T14:56:40;2.33;;;1.48;;
39654;SDS011;25336;59.944;11.010;2022-10-16T14:59:17;7.63;;;2.08;;
39654;SDS011;25336;59.944;11.010;2022-10-16T15:01:44;2.05;;;1.60;;
39654;SDS011;25336;59.944;11.010;2022-10-16T15:04:11;2.85;;;1.17;;
39654;SDS011;25336;59.944;11.010;2022-10-16T15:06:38;2.50;;;1.38;;
39654;SDS011;25336;59.944;11.010;2022-10-16T15:09:04;3.05;;;1.48;;
39654;SDS011;25336;59.944;11.010;2022-10-16T15:11:30;2.00;;;1.45;;
39654;SDS011;25336;59.944;11.010;2022-10-16T15:13:57;4.32;;;1.73;;
39654;SDS011;25336;59.944;11.010;2022-10-16T15:16:23;3.13;;;1.40;;
39654;SDS011;25336;59.944;11.010;2022-10-16T15:18:49;3.85;;;1.20;;
39654;SDS011;25336;59.944;11.010;2022-10-16T15:21:28;2.08;;;1.13;;
39654;SDS011;25336;59.944;11.010;2022-10-16T15:23:55;4.28;;;1.52;;
39654;SDS011;25336;59.944;11.010;2022-10-16T15:26:24;1.73;;;1.55;;
39654;SDS011;25336;59.944;11.010;2022-10-16T15:28:50;4.07;;;2.25;;
39654;SDS011;25336;59.944;11.010;2022-10-16T15:31:17;2.50;;;1.75;;
39654;SDS011;25336;59.944;11.010;2022-10-16T15:33:43;5.72;;;2.78;;
39654;SDS011;25336;59.944;11.010;2022-10-16T15:36:09;6.85;;;3.95;;
39654;SDS011;25336;59.944;11.010;2022-10-16T15:38:35;7.18;;;4.35;;
39654;SDS011;25336;59.944;11.010;2022-10-16T15:41:00;6.28;;;3.47;;
39654;SDS011;25336;59.944;11.010;2022-10-16T15:43:26;4.05;;;3.60;;
39654;SDS011;25336;59.944;11.010;2022-10-16T15:46:03;3.30;;;2.78;;
39654;SDS011;25336;59.944;11.010;2022-10-16T15:48:31;4.35;;;3.72;;
39654;SDS011;25336;59.944;11.010;2022-10-16T15:50:57;2.97;;;1.50;;
39654;SDS011;25336;59.944;11.010;2022-10-16T15:53:23;1.35;;;1.20;;
39654;SDS011;25336;59.944;11.010;2022-10-16T15:55:49;1.73;;;1.50;;
39654;SDS011;25336;59.944;11.010;2022-10-16T15:58:15;2.35;;;1.50;;
39654;SDS011;25336;59.944;11.010;2022-10-16T16:00:40;1.75;;;1.60;;
39654;SDS011;25336;59.944;11.010;2022-10-16T16:03:06;3.55;;;1.80;;
39654;SDS011;25336;59.944;11.010;2022-10-16T16:05:31;2.47;;;2.28;;
39654;SDS011;25336;59.944;11.010;2022-10-16T16:07:58;3.33;;;2.88;;
39654;SDS011;25336;59.944;11.010;2022-10-16T16:10:24;3.55;;;1.90;;
39654;SDS011;25336;59.944;11.010;2022-10-16T16:12:50;3.28;;;1.70;;
39654;SDS011;25336;59.944;11.010;2022-10-16T16:15:18;3.13;;;2.35;;
39654;SDS011;25336;59.944;11.010;2022-10-16T16:17:45;5.50;;;3.15;;
39654;SDS011;25336;59.944;11.010;2022-10-16T16:20:11;3.38;;;2.08;;
39654;SDS011;25336;59.944;11.010;2022-10-16T16:22:37;2.42;;;2.22;;
39654;SDS011;25336;59.944;11.010;2022-10-16T16:25:05;1.95;;;1.50;;
39654;SDS011;25336;59.944;11.010;2022-10-16T16:27:31;1.98;;;1.40;;
39654;SDS011;25336;59.944;11.010;2022-10-16T16:30:00;8.23;;;1.60;;
39654;SDS011;25336;59.944;11.010;2022-10-16T16:32:28;2.40;;;1.30;;
39654;SDS011;25336;59.944;11.010;2022-10-16T16:34:56;3.20;;;1.30;;
39654;SDS011;25336;59.944;11.010;2022-10-16T16:37:22;3.08;;;1.15;;
39654;SDS011;25336;59.944;11.010;2022-10-16T16:39:48;1.70;;;1.20;;
39654;SDS011;25336;59.944;11.010;2022-10-16T16:42:13;3.33;;;1.35;;
39654;SDS011;25336;59.944;11.010;2022-10-16T16:44:39;2.65;;;1.20;;
39654;SDS011;25336;59.944;11.010;2022-10-16T16:47:04;5.88;;;2.03;;
39654;SDS011;25336;59.944;11.010;2022-10-16T16:49:33;3.40;;;1.75;;
39654;SDS011;25336;59.944;11.010;2022-10-16T16:51:59;6.65;;;2.20;;
39654;SDS011;25336;59.944;11.010;2022-10-16T16:54:25;3.50;;;1.65;;
39654;SDS011;25336;59.944;11.010;2022-10-16T16:56:50;6.25;;;2.55;;
39654;SDS011;25336;59.944;11.010;2022-10-16T16:59:17;5.00;;;2.95;;
39654;SDS011;25336;59.944;11.010;2022-10-16T17:01:45;5.40;;;2.92;;
39654;SDS011;25336;59.944;11.010;2022-10-16T17:04:11;9.45;;;3.75;;
39654;SDS011;25336;59.944;11.010;2022-10-16T17:06:38;6.97;;;2.97;;